METAR Data
IDs: Format: Raw Decoded Include TAF

Data at: 2024 UTC 08 Feb 2023

METAR for:KHLB (Batesville Arpt, IN, US)
Text:KHLB 082015Z AUTO 14007KT 10SM BKN050 11/01 A3019 RMK A01
Temperature: 11.0°C ( 52°F)
Dewpoint: 1.0°C ( 34°F) [RH = 50%]
Pressure (altimeter):30.19 inches Hg (1022.4 mb)
Winds:from the SE (140 degrees) at 8 MPH (7 knots; 3.6 m/s)
Visibility:10 or more sm (16+ km)
Ceiling:5000 feet AGL
Clouds: broken clouds at 5000 feet AGL
QC Flag:automated observation with no human augmentation
Text:KHLB 081955Z AUTO 13006KT 10SM CLR 12/01 A3019 RMK A01
Temperature: 12.0°C ( 54°F)
Dewpoint: 1.0°C ( 34°F) [RH = 47%]
Pressure (altimeter):30.19 inches Hg (1022.4 mb)
Winds:from the SE (130 degrees) at 7 MPH (6 knots; 3.1 m/s)
Visibility:10 or more sm (16+ km)
Ceiling:at least 12,000 feet AGL
Clouds:sky clear below 12,000 feet AGL
QC Flag:automated observation with no human augmentation
Text:KHLB 081935Z AUTO 12005KT 10SM CLR 11/01 A3020 RMK A01
Temperature: 11.0°C ( 52°F)
Dewpoint: 1.0°C ( 34°F) [RH = 50%]
Pressure (altimeter):30.20 inches Hg (1022.8 mb)
Winds:from the ESE (120 degrees) at 6 MPH (5 knots; 2.6 m/s)
Visibility:10 or more sm (16+ km)
Ceiling:at least 12,000 feet AGL
Clouds:sky clear below 12,000 feet AGL
QC Flag:automated observation with no human augmentation
Text:KHLB 081915Z AUTO 13004G12KT 10SM CLR 10/00 A3021 RMK A01
Temperature: 10.0°C ( 50°F)
Dewpoint: 0.0°C ( 32°F) [RH = 50%]
Pressure (altimeter):30.21 inches Hg (1023.1 mb)
Winds:from the SE (130 degrees) at 5 MPH (4 knots; 2.1 m/s) gusting to 14 MPH (12 knots; 6.2 m/s)
Visibility:10 or more sm (16+ km)
Ceiling:at least 12,000 feet AGL
Clouds:sky clear below 12,000 feet AGL
QC Flag:automated observation with no human augmentation
Text:KHLB 081855Z AUTO 11006KT 10SM SCT095 10/01 A3021 RMK A01
Temperature: 10.0°C ( 50°F)
Dewpoint: 1.0°C ( 34°F) [RH = 53%]
Pressure (altimeter):30.21 inches Hg (1023.1 mb)
Winds:from the ESE (110 degrees) at 7 MPH (6 knots; 3.1 m/s)
Visibility:10 or more sm (16+ km)
Ceiling:at least 12,000 feet AGL
Clouds: scattered clouds at 9500 feet AGL
QC Flag:automated observation with no human augmentation
Text:KHLB 081835Z AUTO 14006KT 10SM CLR 10/00 A3023 RMK A01
Temperature: 10.0°C ( 50°F)
Dewpoint: 0.0°C ( 32°F) [RH = 50%]
Pressure (altimeter):30.23 inches Hg (1023.8 mb)
Winds:from the SE (140 degrees) at 7 MPH (6 knots; 3.1 m/s)
Visibility:10 or more sm (16+ km)
Ceiling:at least 12,000 feet AGL
Clouds:sky clear below 12,000 feet AGL
QC Flag:automated observation with no human augmentation
Text:KHLB 081815Z AUTO 12007KT 10SM CLR 10/02 A3023 RMK A01
Temperature: 10.0°C ( 50°F)
Dewpoint: 2.0°C ( 36°F) [RH = 57%]
Pressure (altimeter):30.23 inches Hg (1023.8 mb)
Winds:from the ESE (120 degrees) at 8 MPH (7 knots; 3.6 m/s)
Visibility:10 or more sm (16+ km)
Ceiling:at least 12,000 feet AGL
Clouds:sky clear below 12,000 feet AGL
QC Flag:automated observation with no human augmentation
Text:KHLB 081755Z AUTO 12006G12KT 10SM CLR 09/01 A3024 RMK A01
Temperature: 9.0°C ( 48°F)
Dewpoint: 1.0°C ( 34°F) [RH = 57%]
Pressure (altimeter):30.24 inches Hg (1024.1 mb)
Winds:from the ESE (120 degrees) at 7 MPH (6 knots; 3.1 m/s) gusting to 14 MPH (12 knots; 6.2 m/s)
Visibility:10 or more sm (16+ km)
Ceiling:at least 12,000 feet AGL
Clouds:sky clear below 12,000 feet AGL
QC Flag:automated observation with no human augmentation
Text:KHLB 081735Z AUTO 13006KT 10SM CLR 09/01 A3026 RMK A01
Temperature: 9.0°C ( 48°F)
Dewpoint: 1.0°C ( 34°F) [RH = 57%]
Pressure (altimeter):30.26 inches Hg (1024.8 mb)
Winds:from the SE (130 degrees) at 7 MPH (6 knots; 3.1 m/s)
Visibility:10 or more sm (16+ km)
Ceiling:at least 12,000 feet AGL
Clouds:sky clear below 12,000 feet AGL
QC Flag:automated observation with no human augmentation
Text:KHLB 081715Z AUTO 6.88000007KT 10SM CLR 08/01 A3027 RMK A01
Temperature: 8.0°C ( 46°F)
Dewpoint: 1.0°C ( 34°F) [RH = 61%]
Pressure (altimeter):30.27 inches Hg (1025.1 mb)
Winds:variable direction winds at 8 MPH (7 knots; 3.6 m/s)
Visibility:10 or more sm (16+ km)
Ceiling:at least 12,000 feet AGL
Clouds:sky clear below 12,000 feet AGL
QC Flag:automated observation with no human augmentation
Text:KHLB 081655Z AUTO 14005KT 10SM CLR 07/01 A3027 RMK A01
Temperature: 7.0°C ( 45°F)
Dewpoint: 1.0°C ( 34°F) [RH = 66%]
Pressure (altimeter):30.27 inches Hg (1025.1 mb)
Winds:from the SE (140 degrees) at 6 MPH (5 knots; 2.6 m/s)
Visibility:10 or more sm (16+ km)
Ceiling:at least 12,000 feet AGL
Clouds:sky clear below 12,000 feet AGL
QC Flag:automated observation with no human augmentation
Text:KHLB 081635Z AUTO 12008KT 10SM CLR 07/01 A3029 RMK A01
Temperature: 7.0°C ( 45°F)
Dewpoint: 1.0°C ( 34°F) [RH = 66%]
Pressure (altimeter):30.29 inches Hg (1025.8 mb)
Winds:from the ESE (120 degrees) at 9 MPH (8 knots; 4.1 m/s)
Visibility:10 or more sm (16+ km)
Ceiling:at least 12,000 feet AGL
Clouds:sky clear below 12,000 feet AGL
QC Flag:automated observation with no human augmentation
Text:KHLB 081615Z AUTO 09007KT 10SM CLR 06/01 A3029 RMK A01
Temperature: 6.0°C ( 43°F)
Dewpoint: 1.0°C ( 34°F) [RH = 70%]
Pressure (altimeter):30.29 inches Hg (1025.8 mb)
Winds:from the E (90 degrees) at 8 MPH (7 knots; 3.6 m/s)
Visibility:10 or more sm (16+ km)
Ceiling:at least 12,000 feet AGL
Clouds:sky clear below 12,000 feet AGL
QC Flag:automated observation with no human augmentation
Text:KHLB 081555Z AUTO 11006KT 10SM CLR 05/01 A3029 RMK A01
Temperature: 5.0°C ( 41°F)
Dewpoint: 1.0°C ( 34°F) [RH = 75%]
Pressure (altimeter):30.29 inches Hg (1025.8 mb)
Winds:from the ESE (110 degrees) at 7 MPH (6 knots; 3.1 m/s)
Visibility:10 or more sm (16+ km)
Ceiling:at least 12,000 feet AGL
Clouds:sky clear below 12,000 feet AGL
QC Flag:automated observation with no human augmentation
Text:KHLB 081535Z AUTO 11006KT 10SM CLR 05/02 A3030 RMK A01
Temperature: 5.0°C ( 41°F)
Dewpoint: 2.0°C ( 36°F) [RH = 81%]
Pressure (altimeter):30.30 inches Hg (1026.2 mb)
Winds:from the ESE (110 degrees) at 7 MPH (6 knots; 3.1 m/s)
Visibility:10 or more sm (16+ km)
Ceiling:at least 12,000 feet AGL
Clouds:sky clear below 12,000 feet AGL
QC Flag:automated observation with no human augmentation
Text:KHLB 081515Z AUTO 10006G11KT 10SM CLR 04/02 A3030 RMK A01
Temperature: 4.0°C ( 39°F)
Dewpoint: 2.0°C ( 36°F) [RH = 87%]
Pressure (altimeter):30.30 inches Hg (1026.2 mb)
Winds:from the E (100 degrees) at 7 MPH (6 knots; 3.1 m/s) gusting to 13 MPH (11 knots; 5.7 m/s)
Visibility:10 or more sm (16+ km)
Ceiling:at least 12,000 feet AGL
Clouds:sky clear below 12,000 feet AGL
QC Flag:automated observation with no human augmentation
Text:KHLB 081455Z AUTO 13008KT 8SM CLR 03/02 A3030 RMK A01
Temperature: 3.0°C ( 37°F)
Dewpoint: 2.0°C ( 36°F) [RH = 93%]
Pressure (altimeter):30.30 inches Hg (1026.2 mb)
Winds:from the SE (130 degrees) at 9 MPH (8 knots; 4.1 m/s)
Visibility: 8 sm ( 13 km)
Ceiling:at least 12,000 feet AGL
Clouds:sky clear below 12,000 feet AGL
QC Flag:automated observation with no human augmentation
Text:KHLB 081435Z AUTO 12005KT 7SM CLR 01/01 A3030 RMK A01
Temperature: 1.0°C ( 34°F)
Dewpoint: 1.0°C ( 34°F) [RH = 100%]
Pressure (altimeter):30.30 inches Hg (1026.2 mb)
Winds:from the ESE (120 degrees) at 6 MPH (5 knots; 2.6 m/s)
Visibility: 7 sm ( 11 km)
Ceiling:at least 12,000 feet AGL
Clouds:sky clear below 12,000 feet AGL
QC Flag:automated observation with no human augmentation
Text:KHLB 081415Z AUTO 00000KT 3SM BR CLR 00/00 A3030 RMK A01
Temperature: 0.0°C ( 32°F)
Dewpoint: 0.0°C ( 32°F) [RH = 100%]
Pressure (altimeter):30.30 inches Hg (1026.2 mb)
Winds:calm
Visibility: 3 sm ( 5 km)
Ceiling:at least 12,000 feet AGL
Clouds:sky clear below 12,000 feet AGL
Weather:BR (mist)
QC Flag:automated observation with no human augmentation
Text:KHLB 081355Z AUTO 00000KT 4SM BR CLR M01/M01 A3030 RMK A01
Temperature: -1.0°C ( 30°F)
Dewpoint: -1.0°C ( 30°F) [RH = 100%]
Pressure (altimeter):30.30 inches Hg (1026.2 mb)
Winds:calm
Visibility: 4 sm ( 6 km)
Ceiling:at least 12,000 feet AGL
Clouds:sky clear below 12,000 feet AGL
Weather:BR (mist)
QC Flag:automated observation with no human augmentation
Text:KHLB 081335Z AUTO 00000KT 3SM BR CLR M02/M02 A3029 RMK A01
Temperature: -2.0°C ( 28°F)
Dewpoint: -2.0°C ( 28°F) [RH = 100%]
Pressure (altimeter):30.29 inches Hg (1025.8 mb)
Winds:calm
Visibility: 3 sm ( 5 km)
Ceiling:at least 12,000 feet AGL
Clouds:sky clear below 12,000 feet AGL
Weather:BR (mist)
QC Flag:automated observation with no human augmentation
Text:KHLB 081315Z AUTO 14003KT 1/4SM FZFG VV002 M03/M03 A3029 RMK A01
Temperature: -3.0°C ( 27°F)
Dewpoint: -3.0°C ( 27°F) [RH = 100%]
Pressure (altimeter):30.29 inches Hg (1025.8 mb)
Winds:from the SE (140 degrees) at 3 MPH (3 knots; 1.5 m/s)
Visibility: 0.25 sm ( 0.40 km)
Ceiling:indefinite ceiling with vertical visibility of 200 feet AGL
Clouds:obscured sky
Weather:FZFG (freezing fog)
QC Flag:automated observation with no human augmentation
Text:KHLB 081255Z AUTO 00000KT M1/4SM FZFG VV000 M03/M03 A3030 RMK A01
Temperature: -3.0°C ( 27°F)
Dewpoint: -3.0°C ( 27°F) [RH = 100%]
Pressure (altimeter):30.30 inches Hg (1026.2 mb)
Winds:calm
Visibility: 0.25 sm ( 0.40 km)
Ceiling:indefinite ceiling with vertical visibility of 0 feet AGL
Clouds:obscured sky
Weather:FZFG (freezing fog)
QC Flag:automated observation with no human augmentation
Text:KHLB 081235Z AUTO 00000KT 1/4SM FZFG VV002 M02/M02 A3029 RMK A01
Temperature: -2.0°C ( 28°F)
Dewpoint: -2.0°C ( 28°F) [RH = 100%]
Pressure (altimeter):30.29 inches Hg (1025.8 mb)
Winds:calm
Visibility: 0.25 sm ( 0.40 km)
Ceiling:indefinite ceiling with vertical visibility of 200 feet AGL
Clouds:obscured sky
Weather:FZFG (freezing fog)
QC Flag:automated observation with no human augmentation
Text:KHLB 081215Z AUTO 00000KT 1/4SM FZFG VV002 M02/M02 A3029 RMK A01
Temperature: -2.0°C ( 28°F)
Dewpoint: -2.0°C ( 28°F) [RH = 100%]
Pressure (altimeter):30.29 inches Hg (1025.8 mb)
Winds:calm
Visibility: 0.25 sm ( 0.40 km)
Ceiling:indefinite ceiling with vertical visibility of 200 feet AGL
Clouds:obscured sky
Weather:FZFG (freezing fog)
QC Flag:automated observation with no human augmentation
Text:KHLB 081155Z AUTO 00000KT M1/4SM FZFG VV000 M03/M03 A3029 RMK A01
Temperature: -3.0°C ( 27°F)
Dewpoint: -3.0°C ( 27°F) [RH = 100%]
Pressure (altimeter):30.29 inches Hg (1025.8 mb)
Winds:calm
Visibility: 0.25 sm ( 0.40 km)
Ceiling:indefinite ceiling with vertical visibility of 0 feet AGL
Clouds:obscured sky
Weather:FZFG (freezing fog)
QC Flag:automated observation with no human augmentation
Text:KHLB 081135Z AUTO 00000KT M1/4SM FZFG VV000 M03/M03 A3028 RMK A01
Temperature: -3.0°C ( 27°F)
Dewpoint: -3.0°C ( 27°F) [RH = 100%]
Pressure (altimeter):30.28 inches Hg (1025.5 mb)
Winds:calm
Visibility: 0.25 sm ( 0.40 km)
Ceiling:indefinite ceiling with vertical visibility of 0 feet AGL
Clouds:obscured sky
Weather:FZFG (freezing fog)
QC Flag:automated observation with no human augmentation
Text:KHLB 081115Z AUTO 00000KT 1 3/4SM BR CLR M03/M03 A3028 RMK A01
Temperature: -3.0°C ( 27°F)
Dewpoint: -3.0°C ( 27°F) [RH = 100%]
Pressure (altimeter):30.28 inches Hg (1025.5 mb)
Winds:calm
Visibility: 1.75 sm ( 2.82 km)
Ceiling:at least 12,000 feet AGL
Clouds:sky clear below 12,000 feet AGL
Weather:BR (mist)
QC Flag:automated observation with no human augmentation
Text:KHLB 081055Z AUTO 00000KT 1 1/2SM BR CLR M02/M02 A3027 RMK A01
Temperature: -2.0°C ( 28°F)
Dewpoint: -2.0°C ( 28°F) [RH = 100%]
Pressure (altimeter):30.27 inches Hg (1025.1 mb)
Winds:calm
Visibility: 1.50 sm ( 2.41 km)
Ceiling:at least 12,000 feet AGL
Clouds:sky clear below 12,000 feet AGL
Weather:BR (mist)
QC Flag:automated observation with no human augmentation
Text:KHLB 081035Z AUTO 00000KT 1 3/4SM BR CLR M02/M02 A3027 RMK A01
Temperature: -2.0°C ( 28°F)
Dewpoint: -2.0°C ( 28°F) [RH = 100%]
Pressure (altimeter):30.27 inches Hg (1025.1 mb)
Winds:calm
Visibility: 1.75 sm ( 2.82 km)
Ceiling:at least 12,000 feet AGL
Clouds:sky clear below 12,000 feet AGL
Weather:BR (mist)
QC Flag:automated observation with no human augmentation
Text:KHLB 081015Z AUTO 00000KT 3/4SM BR VV005 M03/M03 A3027 RMK A01
Temperature: -3.0°C ( 27°F)
Dewpoint: -3.0°C ( 27°F) [RH = 100%]
Pressure (altimeter):30.27 inches Hg (1025.1 mb)
Winds:calm
Visibility: 0.75 sm ( 1.21 km)
Ceiling:indefinite ceiling with vertical visibility of 500 feet AGL
Clouds:obscured sky
Weather:BR (mist)
QC Flag:automated observation with no human augmentation
Text:KHLB 080955Z AUTO 00000KT 3SM BR CLR M02/M02 A3026 RMK A01
Temperature: -2.0°C ( 28°F)
Dewpoint: -2.0°C ( 28°F) [RH = 100%]
Pressure (altimeter):30.26 inches Hg (1024.8 mb)
Winds:calm
Visibility: 3 sm ( 5 km)
Ceiling:at least 12,000 feet AGL
Clouds:sky clear below 12,000 feet AGL
Weather:BR (mist)
QC Flag:automated observation with no human augmentation
Text:KHLB 080935Z AUTO 00000KT 7SM CLR M01/M01 A3026 RMK A01
Temperature: -1.0°C ( 30°F)
Dewpoint: -1.0°C ( 30°F) [RH = 100%]
Pressure (altimeter):30.26 inches Hg (1024.8 mb)
Winds:calm
Visibility: 7 sm ( 11 km)
Ceiling:at least 12,000 feet AGL
Clouds:sky clear below 12,000 feet AGL
QC Flag:automated observation with no human augmentation
Text:KHLB 080915Z AUTO 00000KT 5SM BR CLR M01/M01 A3025 RMK A01
Temperature: -1.0°C ( 30°F)
Dewpoint: -1.0°C ( 30°F) [RH = 100%]
Pressure (altimeter):30.25 inches Hg (1024.5 mb)
Winds:calm
Visibility: 5 sm ( 8 km)
Ceiling:at least 12,000 feet AGL
Clouds:sky clear below 12,000 feet AGL
Weather:BR (mist)
QC Flag:automated observation with no human augmentation
Text:KHLB 080855Z AUTO 00000KT 6SM BR CLR M01/M01 A3025 RMK A01
Temperature: -1.0°C ( 30°F)
Dewpoint: -1.0°C ( 30°F) [RH = 100%]
Pressure (altimeter):30.25 inches Hg (1024.5 mb)
Winds:calm
Visibility: 6 sm ( 10 km)
Ceiling:at least 12,000 feet AGL
Clouds:sky clear below 12,000 feet AGL
Weather:BR (mist)
QC Flag:automated observation with no human augmentation
Text:KHLB 080835Z AUTO 00000KT 4SM BR CLR M00/M00 A3025 RMK A01
Temperature: 0.0°C ( 32°F)
Dewpoint: 0.0°C ( 32°F) [RH = 100%]
Pressure (altimeter):30.25 inches Hg (1024.5 mb)
Winds:calm
Visibility: 4 sm ( 6 km)
Ceiling:at least 12,000 feet AGL
Clouds:sky clear below 12,000 feet AGL
Weather:BR (mist)
QC Flag:automated observation with no human augmentation
Text:KHLB 080815Z AUTO 00000KT 4SM BR CLR M01/M01 A3024 RMK A01
Temperature: -1.0°C ( 30°F)
Dewpoint: -1.0°C ( 30°F) [RH = 100%]
Pressure (altimeter):30.24 inches Hg (1024.1 mb)
Winds:calm
Visibility: 4 sm ( 6 km)
Ceiling:at least 12,000 feet AGL
Clouds:sky clear below 12,000 feet AGL
Weather:BR (mist)
QC Flag:automated observation with no human augmentation
Text:KHLB 080755Z AUTO 00000KT 6SM BR CLR M00/M00 A3025 RMK A01
Temperature: 0.0°C ( 32°F)
Dewpoint: 0.0°C ( 32°F) [RH = 100%]
Pressure (altimeter):30.25 inches Hg (1024.5 mb)
Winds:calm
Visibility: 6 sm ( 10 km)
Ceiling:at least 12,000 feet AGL
Clouds:sky clear below 12,000 feet AGL
Weather:BR (mist)
QC Flag:automated observation with no human augmentation
Text:KHLB 080735Z AUTO 00000KT 8SM CLR 00/00 A3025 RMK A01
Temperature: 0.0°C ( 32°F)
Dewpoint: 0.0°C ( 32°F) [RH = 100%]
Pressure (altimeter):30.25 inches Hg (1024.5 mb)
Winds:calm
Visibility: 8 sm ( 13 km)
Ceiling:at least 12,000 feet AGL
Clouds:sky clear below 12,000 feet AGL
QC Flag:automated observation with no human augmentation
Text:KHLB 080715Z AUTO 00000KT 10SM CLR 01/00 A3025 RMK A01
Temperature: 1.0°C ( 34°F)
Dewpoint: 0.0°C ( 32°F) [RH = 93%]
Pressure (altimeter):30.25 inches Hg (1024.5 mb)
Winds:calm
Visibility:10 or more sm (16+ km)
Ceiling:at least 12,000 feet AGL
Clouds:sky clear below 12,000 feet AGL
QC Flag:automated observation with no human augmentation
Text:KHLB 080655Z AUTO 00000KT 10SM CLR 01/01 A3025 RMK A01
Temperature: 1.0°C ( 34°F)
Dewpoint: 1.0°C ( 34°F) [RH = 100%]
Pressure (altimeter):30.25 inches Hg (1024.5 mb)
Winds:calm
Visibility:10 or more sm (16+ km)
Ceiling:at least 12,000 feet AGL
Clouds:sky clear below 12,000 feet AGL
QC Flag:automated observation with no human augmentation
Text:KHLB 080635Z AUTO 00000KT 10SM CLR 02/01 A3024 RMK A01
Temperature: 2.0°C ( 36°F)
Dewpoint: 1.0°C ( 34°F) [RH = 93%]
Pressure (altimeter):30.24 inches Hg (1024.1 mb)
Winds:calm
Visibility:10 or more sm (16+ km)
Ceiling:at least 12,000 feet AGL
Clouds:sky clear below 12,000 feet AGL
QC Flag:automated observation with no human augmentation
Text:KHLB 080615Z AUTO 00000KT 10SM CLR 02/01 A3024 RMK A01
Temperature: 2.0°C ( 36°F)
Dewpoint: 1.0°C ( 34°F) [RH = 93%]
Pressure (altimeter):30.24 inches Hg (1024.1 mb)
Winds:calm
Visibility:10 or more sm (16+ km)
Ceiling:at least 12,000 feet AGL
Clouds:sky clear below 12,000 feet AGL
QC Flag:automated observation with no human augmentation
Text:KHLB 080555Z AUTO 00000KT 10SM CLR 03/01 A3023 RMK A01
Temperature: 3.0°C ( 37°F)
Dewpoint: 1.0°C ( 34°F) [RH = 87%]
Pressure (altimeter):30.23 inches Hg (1023.8 mb)
Winds:calm
Visibility:10 or more sm (16+ km)
Ceiling:at least 12,000 feet AGL
Clouds:sky clear below 12,000 feet AGL
QC Flag:automated observation with no human augmentation
Text:KHLB 080535Z AUTO VRB04KT 10SM CLR 03/02 A3023 RMK A01
Temperature: 3.0°C ( 37°F)
Dewpoint: 2.0°C ( 36°F) [RH = 93%]
Pressure (altimeter):30.23 inches Hg (1023.8 mb)
Winds:variable direction winds at 5 MPH (4 knots; 2.1 m/s)
Visibility:10 or more sm (16+ km)
Ceiling:at least 12,000 feet AGL
Clouds:sky clear below 12,000 feet AGL
QC Flag:automated observation with no human augmentation
Text:KHLB 080515Z AUTO VRB04G11KT 10SM CLR 04/02 A3022 RMK A01
Temperature: 4.0°C ( 39°F)
Dewpoint: 2.0°C ( 36°F) [RH = 87%]
Pressure (altimeter):30.22 inches Hg (1023.5 mb)
Winds:variable direction winds at 5 MPH (4 knots; 2.1 m/s) gusting to 13 MPH (11 knots; 5.7 m/s)
Visibility:10 or more sm (16+ km)
Ceiling:at least 12,000 feet AGL
Clouds:sky clear below 12,000 feet AGL
QC Flag:automated observation with no human augmentation
Text:KHLB 080455Z AUTO 00000KT 10SM CLR 05/02 A3020 RMK A01
Temperature: 5.0°C ( 41°F)
Dewpoint: 2.0°C ( 36°F) [RH = 81%]
Pressure (altimeter):30.20 inches Hg (1022.8 mb)
Winds:calm
Visibility:10 or more sm (16+ km)
Ceiling:at least 12,000 feet AGL
Clouds:sky clear below 12,000 feet AGL
QC Flag:automated observation with no human augmentation
Text:KHLB 080435Z AUTO 00000KT 10SM CLR 06/02 A3020 RMK A01
Temperature: 6.0°C ( 43°F)
Dewpoint: 2.0°C ( 36°F) [RH = 75%]
Pressure (altimeter):30.20 inches Hg (1022.8 mb)
Winds:calm
Visibility:10 or more sm (16+ km)
Ceiling:at least 12,000 feet AGL
Clouds:sky clear below 12,000 feet AGL
QC Flag:automated observation with no human augmentation
Text:KHLB 080415Z AUTO VRB04KT 10SM CLR 07/02 A3019 RMK A01
Temperature: 7.0°C ( 45°F)
Dewpoint: 2.0°C ( 36°F) [RH = 70%]
Pressure (altimeter):30.19 inches Hg (1022.4 mb)
Winds:variable direction winds at 5 MPH (4 knots; 2.1 m/s)
Visibility:10 or more sm (16+ km)
Ceiling:at least 12,000 feet AGL
Clouds:sky clear below 12,000 feet AGL
QC Flag:automated observation with no human augmentation
Text:KHLB 080355Z AUTO 30005G11KT 10SM CLR 07/03 A3019 RMK A01
Temperature: 7.0°C ( 45°F)
Dewpoint: 3.0°C ( 37°F) [RH = 76%]
Pressure (altimeter):30.19 inches Hg (1022.4 mb)
Winds:from the WNW (300 degrees) at 6 MPH (5 knots; 2.6 m/s) gusting to 13 MPH (11 knots; 5.7 m/s)
Visibility:10 or more sm (16+ km)
Ceiling:at least 12,000 feet AGL
Clouds:sky clear below 12,000 feet AGL
QC Flag:automated observation with no human augmentation
Text:KHLB 080335Z AUTO VRB05KT 10SM CLR 07/03 A3019 RMK A01
Temperature: 7.0°C ( 45°F)
Dewpoint: 3.0°C ( 37°F) [RH = 76%]
Pressure (altimeter):30.19 inches Hg (1022.4 mb)
Winds:variable direction winds at 6 MPH (5 knots; 2.6 m/s)
Visibility:10 or more sm (16+ km)
Ceiling:at least 12,000 feet AGL
Clouds:sky clear below 12,000 feet AGL
QC Flag:automated observation with no human augmentation
Text:KHLB 080315Z AUTO VRB03KT 10SM FEW065 07/03 A3017 RMK A01
Temperature: 7.0°C ( 45°F)
Dewpoint: 3.0°C ( 37°F) [RH = 76%]
Pressure (altimeter):30.17 inches Hg (1021.8 mb)
Winds:variable direction winds at 3 MPH (3 knots; 1.5 m/s)
Visibility:10 or more sm (16+ km)
Ceiling:at least 12,000 feet AGL
Clouds: few clouds at 6500 feet AGL
QC Flag:automated observation with no human augmentation
Text:KHLB 080255Z AUTO 00000KT 10SM BKN060 09/03 A3017 RMK A01
Temperature: 9.0°C ( 48°F)
Dewpoint: 3.0°C ( 37°F) [RH = 66%]
Pressure (altimeter):30.17 inches Hg (1021.8 mb)
Winds:calm
Visibility:10 or more sm (16+ km)
Ceiling:6000 feet AGL
Clouds: broken clouds at 6000 feet AGL
QC Flag:automated observation with no human augmentation
Text:KHLB 080235Z AUTO 00000KT 10SM OVC060 09/03 A3017 RMK A01
Temperature: 9.0°C ( 48°F)
Dewpoint: 3.0°C ( 37°F) [RH = 66%]
Pressure (altimeter):30.17 inches Hg (1021.8 mb)
Winds:calm
Visibility:10 or more sm (16+ km)
Ceiling:6000 feet AGL
Clouds: overcast cloud deck at 6000 feet AGL
QC Flag:automated observation with no human augmentation
Text:KHLB 080215Z AUTO 00000KT 10SM BKN060 OVC075 09/03 A3017 RMK A01
Temperature: 9.0°C ( 48°F)
Dewpoint: 3.0°C ( 37°F) [RH = 66%]
Pressure (altimeter):30.17 inches Hg (1021.8 mb)
Winds:calm
Visibility:10 or more sm (16+ km)
Ceiling:6000 feet AGL
Clouds: broken clouds at 6000 feet AGL, overcast cloud deck at 7500 feet AGL
QC Flag:automated observation with no human augmentation
Text:KHLB 080155Z AUTO 00000KT 10SM BKN060 OVC070 09/03 A3017 RMK A01
Temperature: 9.0°C ( 48°F)
Dewpoint: 3.0°C ( 37°F) [RH = 66%]
Pressure (altimeter):30.17 inches Hg (1021.8 mb)
Winds:calm
Visibility:10 or more sm (16+ km)
Ceiling:6000 feet AGL
Clouds: broken clouds at 6000 feet AGL, overcast cloud deck at 7000 feet AGL
QC Flag:automated observation with no human augmentation
Text:KHLB 080135Z AUTO VRB04G10KT 10SM OVC060 10/04 A3017 RMK A01
Temperature: 10.0°C ( 50°F)
Dewpoint: 4.0°C ( 39°F) [RH = 66%]
Pressure (altimeter):30.17 inches Hg (1021.8 mb)
Winds:variable direction winds at 5 MPH (4 knots; 2.1 m/s) gusting to 12 MPH (10 knots; 5.1 m/s)
Visibility:10 or more sm (16+ km)
Ceiling:6000 feet AGL
Clouds: overcast cloud deck at 6000 feet AGL
QC Flag:automated observation with no human augmentation
Text:KHLB 080115Z AUTO VRB05KT 10SM FEW050 OVC060 10/04 A3017 RMK A01
Temperature: 10.0°C ( 50°F)
Dewpoint: 4.0°C ( 39°F) [RH = 66%]
Pressure (altimeter):30.17 inches Hg (1021.8 mb)
Winds:variable direction winds at 6 MPH (5 knots; 2.6 m/s)
Visibility:10 or more sm (16+ km)
Ceiling:6000 feet AGL
Clouds: few clouds at 5000 feet AGL, overcast cloud deck at 6000 feet AGL
QC Flag:automated observation with no human augmentation
Text:KHLB 080055Z AUTO VRB06KT 10SM BKN050 OVC055 10/05 A3017 RMK A01
Temperature: 10.0°C ( 50°F)
Dewpoint: 5.0°C ( 41°F) [RH = 71%]
Pressure (altimeter):30.17 inches Hg (1021.8 mb)
Winds:variable direction winds at 7 MPH (6 knots; 3.1 m/s)
Visibility:10 or more sm (16+ km)
Ceiling:5000 feet AGL
Clouds: broken clouds at 5000 feet AGL, overcast cloud deck at 5500 feet AGL
QC Flag:automated observation with no human augmentation
Text:KHLB 080035Z AUTO VRB03KT 10SM OVC055 11/06 A3016 RMK A01
Temperature: 11.0°C ( 52°F)
Dewpoint: 6.0°C ( 43°F) [RH = 71%]
Pressure (altimeter):30.16 inches Hg (1021.4 mb)
Winds:variable direction winds at 3 MPH (3 knots; 1.5 m/s)
Visibility:10 or more sm (16+ km)
Ceiling:5500 feet AGL
Clouds: overcast cloud deck at 5500 feet AGL
QC Flag:automated observation with no human augmentation
Text:KHLB 080015Z AUTO 28004KT 10SM FEW015 SCT028 OVC055 11/09 A3016 RMK A01
Temperature: 11.0°C ( 52°F)
Dewpoint: 9.0°C ( 48°F) [RH = 87%]
Pressure (altimeter):30.16 inches Hg (1021.4 mb)
Winds:from the W (280 degrees) at 5 MPH (4 knots; 2.1 m/s)
Visibility:10 or more sm (16+ km)
Ceiling:5500 feet AGL
Clouds: few clouds at 1500 feet AGL, scattered clouds at 2800 feet AGL, overcast cloud deck at 5500 feet AGL
QC Flag:automated observation with no human augmentation
Text:KHLB 072355Z AUTO 31005G10KT 10SM SCT017 BKN024 OVC030 11/09 A3015 RMK A01
Temperature: 11.0°C ( 52°F)
Dewpoint: 9.0°C ( 48°F) [RH = 87%]
Pressure (altimeter):30.15 inches Hg (1021.1 mb)
Winds:from the NW (310 degrees) at 6 MPH (5 knots; 2.6 m/s) gusting to 12 MPH (10 knots; 5.1 m/s)
Visibility:10 or more sm (16+ km)
Ceiling:2400 feet AGL
Clouds: scattered clouds at 1700 feet AGL, broken clouds at 2400 feet AGL, overcast cloud deck at 3000 feet AGL
QC Flag:automated observation with no human augmentation
Text:KHLB 072335Z AUTO 00000KT 10SM FEW025 SCT033 OVC055 11/09 A3013 RMK A01
Temperature: 11.0°C ( 52°F)
Dewpoint: 9.0°C ( 48°F) [RH = 87%]
Pressure (altimeter):30.13 inches Hg (1020.4 mb)
Winds:calm
Visibility:10 or more sm (16+ km)
Ceiling:5500 feet AGL
Clouds: few clouds at 2500 feet AGL, scattered clouds at 3300 feet AGL, overcast cloud deck at 5500 feet AGL
QC Flag:automated observation with no human augmentation
Text:KHLB 072315Z AUTO 00000KT 10SM OVC055 11/09 A3013 RMK A01
Temperature: 11.0°C ( 52°F)
Dewpoint: 9.0°C ( 48°F) [RH = 87%]
Pressure (altimeter):30.13 inches Hg (1020.4 mb)
Winds:calm
Visibility:10 or more sm (16+ km)
Ceiling:5500 feet AGL
Clouds: overcast cloud deck at 5500 feet AGL
QC Flag:automated observation with no human augmentation
Text:KHLB 072255Z AUTO 00000KT 10SM OVC055 11/09 A3012 RMK A01
Temperature: 11.0°C ( 52°F)
Dewpoint: 9.0°C ( 48°F) [RH = 87%]
Pressure (altimeter):30.12 inches Hg (1020.1 mb)
Winds:calm
Visibility:10 or more sm (16+ km)
Ceiling:5500 feet AGL
Clouds: overcast cloud deck at 5500 feet AGL
QC Flag:automated observation with no human augmentation
Text:KHLB 072235Z AUTO VRB05KT 10SM OVC050 11/09 A3011 RMK A01
Temperature: 11.0°C ( 52°F)
Dewpoint: 9.0°C ( 48°F) [RH = 87%]
Pressure (altimeter):30.11 inches Hg (1019.7 mb)
Winds:variable direction winds at 6 MPH (5 knots; 2.6 m/s)
Visibility:10 or more sm (16+ km)
Ceiling:5000 feet AGL
Clouds: overcast cloud deck at 5000 feet AGL
QC Flag:automated observation with no human augmentation
Text:KHLB 072215Z AUTO 00000KT 10SM SCT040 OVC050 11/09 A3010 RMK A01
Temperature: 11.0°C ( 52°F)
Dewpoint: 9.0°C ( 48°F) [RH = 87%]
Pressure (altimeter):30.10 inches Hg (1019.4 mb)
Winds:calm
Visibility:10 or more sm (16+ km)
Ceiling:5000 feet AGL
Clouds: scattered clouds at 4000 feet AGL, overcast cloud deck at 5000 feet AGL
QC Flag:automated observation with no human augmentation
Text:KHLB 072155Z AUTO VRB04KT 10SM BKN038 OVC045 11/09 A3010 RMK A01
Temperature: 11.0°C ( 52°F)
Dewpoint: 9.0°C ( 48°F) [RH = 87%]
Pressure (altimeter):30.10 inches Hg (1019.4 mb)
Winds:variable direction winds at 5 MPH (4 knots; 2.1 m/s)
Visibility:10 or more sm (16+ km)
Ceiling:3800 feet AGL
Clouds: broken clouds at 3800 feet AGL, overcast cloud deck at 4500 feet AGL
QC Flag:automated observation with no human augmentation
Text:KHLB 072135Z AUTO VRB05KT 10SM FEW018 BKN046 OVC060 12/09 A3009 RMK A01
Temperature: 12.0°C ( 54°F)
Dewpoint: 9.0°C ( 48°F) [RH = 82%]
Pressure (altimeter):30.09 inches Hg (1019.0 mb)
Winds:variable direction winds at 6 MPH (5 knots; 2.6 m/s)
Visibility:10 or more sm (16+ km)
Ceiling:4600 feet AGL
Clouds: few clouds at 1800 feet AGL, broken clouds at 4600 feet AGL, overcast cloud deck at 6000 feet AGL
QC Flag:automated observation with no human augmentation
Text:KHLB 072115Z AUTO VRB03G10KT 10SM BKN019 BKN041 OVC060 12/09 A3009 RMK A01
Temperature: 12.0°C ( 54°F)
Dewpoint: 9.0°C ( 48°F) [RH = 82%]
Pressure (altimeter):30.09 inches Hg (1019.0 mb)
Winds:variable direction winds at 3 MPH (3 knots; 1.5 m/s) gusting to 12 MPH (10 knots; 5.1 m/s)
Visibility:10 or more sm (16+ km)
Ceiling:1900 feet AGL
Clouds: broken clouds at 1900 feet AGL, broken clouds at 4100 feet AGL, overcast cloud deck at 6000 feet AGL
QC Flag:automated observation with no human augmentation
Text:KHLB 072055Z AUTO VRB04G11KT 10SM BKN018 BKN040 OVC065 12/09 A3008 RMK A01
Temperature: 12.0°C ( 54°F)
Dewpoint: 9.0°C ( 48°F) [RH = 82%]
Pressure (altimeter):30.08 inches Hg (1018.7 mb)
Winds:variable direction winds at 5 MPH (4 knots; 2.1 m/s) gusting to 13 MPH (11 knots; 5.7 m/s)
Visibility:10 or more sm (16+ km)
Ceiling:1800 feet AGL
Clouds: broken clouds at 1800 feet AGL, broken clouds at 4000 feet AGL, overcast cloud deck at 6500 feet AGL
QC Flag:automated observation with no human augmentation
Text:KHLB 072035Z AUTO VRB05KT 10SM OVC016 12/09 A3008 RMK A01
Temperature: 12.0°C ( 54°F)
Dewpoint: 9.0°C ( 48°F) [RH = 82%]
Pressure (altimeter):30.08 inches Hg (1018.7 mb)
Winds:variable direction winds at 6 MPH (5 knots; 2.6 m/s)
Visibility:10 or more sm (16+ km)
Ceiling:1600 feet AGL
Clouds: overcast cloud deck at 1600 feet AGL
QC Flag:automated observation with no human augmentation
Text:KHLB 072015Z AUTO VRB03KT 10SM OVC015 11/09 A3008 RMK A01
Temperature: 11.0°C ( 52°F)
Dewpoint: 9.0°C ( 48°F) [RH = 87%]
Pressure (altimeter):30.08 inches Hg (1018.7 mb)
Winds:variable direction winds at 3 MPH (3 knots; 1.5 m/s)
Visibility:10 or more sm (16+ km)
Ceiling:1500 feet AGL
Clouds: overcast cloud deck at 1500 feet AGL
QC Flag:automated observation with no human augmentation
Text:KHLB 071955Z AUTO 00000G10KT 10SM OVC015 11/09 A3007 RMK A01
Temperature: 11.0°C ( 52°F)
Dewpoint: 9.0°C ( 48°F) [RH = 87%]
Pressure (altimeter):30.07 inches Hg (1018.4 mb)
Winds:calm
Visibility:10 or more sm (16+ km)
Ceiling:1500 feet AGL
Clouds: overcast cloud deck at 1500 feet AGL
QC Flag:automated observation with no human augmentation
Text:KHLB 071935Z AUTO 22008KT 190V250 10SM OVC016 12/09 A3005 RMK A01
Temperature: 12.0°C ( 54°F)
Dewpoint: 9.0°C ( 48°F) [RH = 82%]
Pressure (altimeter):30.05 inches Hg (1017.7 mb)
Winds:from the SW (220 degrees) at 9 MPH (8 knots; 4.1 m/s)
Visibility:10 or more sm (16+ km)
Ceiling:1600 feet AGL
Clouds: overcast cloud deck at 1600 feet AGL
QC Flag:automated observation with no human augmentation
Text:KHLB 071915Z AUTO VRB04G10KT 10SM BKN020 12/09 A3005 RMK A01
Temperature: 12.0°C ( 54°F)
Dewpoint: 9.0°C ( 48°F) [RH = 82%]
Pressure (altimeter):30.05 inches Hg (1017.7 mb)
Winds:variable direction winds at 5 MPH (4 knots; 2.1 m/s) gusting to 12 MPH (10 knots; 5.1 m/s)
Visibility:10 or more sm (16+ km)
Ceiling:2000 feet AGL
Clouds: broken clouds at 2000 feet AGL
QC Flag:automated observation with no human augmentation
Text:KHLB 071855Z AUTO VRB06G14KT 10SM SCT021 SCT048 SCT055 11/09 A3005 RMK A01
Temperature: 11.0°C ( 52°F)
Dewpoint: 9.0°C ( 48°F) [RH = 87%]
Pressure (altimeter):30.05 inches Hg (1017.7 mb)
Winds:variable direction winds at 7 MPH (6 knots; 3.1 m/s) gusting to 16 MPH (14 knots; 7.2 m/s)
Visibility:10 or more sm (16+ km)
Ceiling:at least 12,000 feet AGL
Clouds: scattered clouds at 2100 feet AGL, scattered clouds at 4800 feet AGL, scattered clouds at 5500 feet AGL
QC Flag:automated observation with no human augmentation
Text:KHLB 071835Z AUTO 19009G15KT 10SM BKN022 BKN048 BKN055 11/08 A3004 RMK A01
Temperature: 11.0°C ( 52°F)
Dewpoint: 8.0°C ( 46°F) [RH = 82%]
Pressure (altimeter):30.04 inches Hg (1017.4 mb)
Winds:from the S (190 degrees) at 10 MPH (9 knots; 4.6 m/s) gusting to 17 MPH (15 knots; 7.7 m/s)
Visibility:10 or more sm (16+ km)
Ceiling:2200 feet AGL
Clouds: broken clouds at 2200 feet AGL, broken clouds at 4800 feet AGL, broken clouds at 5500 feet AGL
QC Flag:automated observation with no human augmentation
Text:KHLB 071815Z AUTO VRB06G16KT 8SM SCT023 SCT042 BKN065 11/08 A3006 RMK A01
Temperature: 11.0°C ( 52°F)
Dewpoint: 8.0°C ( 46°F) [RH = 82%]
Pressure (altimeter):30.06 inches Hg (1018.0 mb)
Winds:variable direction winds at 7 MPH (6 knots; 3.1 m/s) gusting to 18 MPH (16 knots; 8.2 m/s)
Visibility: 8 sm ( 13 km)
Ceiling:6500 feet AGL
Clouds: scattered clouds at 2300 feet AGL, scattered clouds at 4200 feet AGL, broken clouds at 6500 feet AGL
QC Flag:automated observation with no human augmentation
Text:KHLB 071755Z AUTO 19007G14KT 160V230 10SM SCT026 BKN041 BKN065 12/07 A3005 RMK A01
Temperature: 12.0°C ( 54°F)
Dewpoint: 7.0°C ( 45°F) [RH = 71%]
Pressure (altimeter):30.05 inches Hg (1017.7 mb)
Winds:from the S (190 degrees) at 8 MPH (7 knots; 3.6 m/s) gusting to 16 MPH (14 knots; 7.2 m/s)
Visibility:10 or more sm (16+ km)
Ceiling:4100 feet AGL
Clouds: scattered clouds at 2600 feet AGL, broken clouds at 4100 feet AGL, broken clouds at 6500 feet AGL
QC Flag:automated observation with no human augmentation
Text:KHLB 071735Z AUTO 19006KT 10SM BKN026 OVC034 12/07 A3007 RMK A01
Temperature: 12.0°C ( 54°F)
Dewpoint: 7.0°C ( 45°F) [RH = 71%]
Pressure (altimeter):30.07 inches Hg (1018.4 mb)
Winds:from the S (190 degrees) at 7 MPH (6 knots; 3.1 m/s)
Visibility:10 or more sm (16+ km)
Ceiling:2600 feet AGL
Clouds: broken clouds at 2600 feet AGL, overcast cloud deck at 3400 feet AGL
QC Flag:automated observation with no human augmentation
Text:KHLB 071715Z AUTO VRB04KT 10SM SCT026 OVC033 11/07 A3007 RMK A01
Temperature: 11.0°C ( 52°F)
Dewpoint: 7.0°C ( 45°F) [RH = 76%]
Pressure (altimeter):30.07 inches Hg (1018.4 mb)
Winds:variable direction winds at 5 MPH (4 knots; 2.1 m/s)
Visibility:10 or more sm (16+ km)
Ceiling:3300 feet AGL
Clouds: scattered clouds at 2600 feet AGL, overcast cloud deck at 3300 feet AGL
QC Flag:automated observation with no human augmentation
Text:KHLB 071655Z AUTO VRB04G10KT 6SM HZ BKN026 11/07 A3008 RMK A01
Temperature: 11.0°C ( 52°F)
Dewpoint: 7.0°C ( 45°F) [RH = 76%]
Pressure (altimeter):30.08 inches Hg (1018.7 mb)
Winds:variable direction winds at 5 MPH (4 knots; 2.1 m/s) gusting to 12 MPH (10 knots; 5.1 m/s)
Visibility: 6 sm ( 10 km)
Ceiling:2600 feet AGL
Clouds: broken clouds at 2600 feet AGL
Weather:HZ (haze)
QC Flag:automated observation with no human augmentation
Text:KHLB 071635Z AUTO VRB03G12KT 10SM BKN027 BKN110 12/05 A3009 RMK A01
Temperature: 12.0°C ( 54°F)
Dewpoint: 5.0°C ( 41°F) [RH = 62%]
Pressure (altimeter):30.09 inches Hg (1019.0 mb)
Winds:variable direction winds at 3 MPH (3 knots; 1.5 m/s) gusting to 14 MPH (12 knots; 6.2 m/s)
Visibility:10 or more sm (16+ km)
Ceiling:2700 feet AGL
Clouds: broken clouds at 2700 feet AGL, broken clouds at 11000 feet AGL
QC Flag:automated observation with no human augmentation
Text:KHLB 071615Z AUTO VRB04G14KT 10SM SCT029 SCT033 BKN110 13/04 A3007 RMK A01
Temperature: 13.0°C ( 55°F)
Dewpoint: 4.0°C ( 39°F) [RH = 54%]
Pressure (altimeter):30.07 inches Hg (1018.4 mb)
Winds:variable direction winds at 5 MPH (4 knots; 2.1 m/s) gusting to 16 MPH (14 knots; 7.2 m/s)
Visibility:10 or more sm (16+ km)
Ceiling:11000 feet AGL
Clouds: scattered clouds at 2900 feet AGL, scattered clouds at 3300 feet AGL, broken clouds at 11000 feet AGL
QC Flag:automated observation with no human augmentation
Text:KHLB 071555Z AUTO 21007G13KT 180V260 10SM BKN029 BKN041 OVC047 13/04 A3007 RMK A01
Temperature: 13.0°C ( 55°F)
Dewpoint: 4.0°C ( 39°F) [RH = 54%]
Pressure (altimeter):30.07 inches Hg (1018.4 mb)
Winds:from the SSW (210 degrees) at 8 MPH (7 knots; 3.6 m/s) gusting to 15 MPH (13 knots; 6.7 m/s)
Visibility:10 or more sm (16+ km)
Ceiling:2900 feet AGL
Clouds: broken clouds at 2900 feet AGL, broken clouds at 4100 feet AGL, overcast cloud deck at 4700 feet AGL
QC Flag:automated observation with no human augmentation
Text:KHLB 071535Z AUTO VRB05G13KT 10SM FEW032 SCT039 BKN049 13/03 A3007 RMK A01
Temperature: 13.0°C ( 55°F)
Dewpoint: 3.0°C ( 37°F) [RH = 51%]
Pressure (altimeter):30.07 inches Hg (1018.4 mb)
Winds:variable direction winds at 6 MPH (5 knots; 2.6 m/s) gusting to 15 MPH (13 knots; 6.7 m/s)
Visibility:10 or more sm (16+ km)
Ceiling:4900 feet AGL
Clouds: few clouds at 3200 feet AGL, scattered clouds at 3900 feet AGL, broken clouds at 4900 feet AGL
QC Flag:automated observation with no human augmentation
Text:KHLB 071515Z AUTO VRB06G12KT 170V230 10SM BKN035 BKN049 OVC065 12/03 A3006 RMK A01
Temperature: 12.0°C ( 54°F)
Dewpoint: 3.0°C ( 37°F) [RH = 54%]
Pressure (altimeter):30.06 inches Hg (1018.0 mb)
Winds:variable direction winds at 7 MPH (6 knots; 3.1 m/s) gusting to 14 MPH (12 knots; 6.2 m/s)
Visibility:10 or more sm (16+ km)
Ceiling:3500 feet AGL
Clouds: broken clouds at 3500 feet AGL, broken clouds at 4900 feet AGL, overcast cloud deck at 6500 feet AGL
QC Flag:automated observation with no human augmentation
Text:KHLB 071455Z AUTO 19007KT 10SM BKN034 BKN041 OVC050 11/03 A3005 RMK A01
Temperature: 11.0°C ( 52°F)
Dewpoint: 3.0°C ( 37°F) [RH = 58%]
Pressure (altimeter):30.05 inches Hg (1017.7 mb)
Winds:from the S (190 degrees) at 8 MPH (7 knots; 3.6 m/s)
Visibility:10 or more sm (16+ km)
Ceiling:3400 feet AGL
Clouds: broken clouds at 3400 feet AGL, broken clouds at 4100 feet AGL, overcast cloud deck at 5000 feet AGL
QC Flag:automated observation with no human augmentation
Text:KHLB 071435Z AUTO 20005G10KT 10SM SCT049 11/02 A3005 RMK A01
Temperature: 11.0°C ( 52°F)
Dewpoint: 2.0°C ( 36°F) [RH = 54%]
Pressure (altimeter):30.05 inches Hg (1017.7 mb)
Winds:from the SSW (200 degrees) at 6 MPH (5 knots; 2.6 m/s) gusting to 12 MPH (10 knots; 5.1 m/s)
Visibility:10 or more sm (16+ km)
Ceiling:at least 12,000 feet AGL
Clouds: scattered clouds at 4900 feet AGL
QC Flag:automated observation with no human augmentation
Text:KHLB 071415Z AUTO VRB05G13KT 10SM FEW041 SCT048 SCT055 10/02 A3005 RMK A01
Temperature: 10.0°C ( 50°F)
Dewpoint: 2.0°C ( 36°F) [RH = 57%]
Pressure (altimeter):30.05 inches Hg (1017.7 mb)
Winds:variable direction winds at 6 MPH (5 knots; 2.6 m/s) gusting to 15 MPH (13 knots; 6.7 m/s)
Visibility:10 or more sm (16+ km)
Ceiling:at least 12,000 feet AGL
Clouds: few clouds at 4100 feet AGL, scattered clouds at 4800 feet AGL, scattered clouds at 5500 feet AGL
QC Flag:automated observation with no human augmentation
Text:KHLB 071355Z AUTO 19007G13KT 170V240 10SM BKN043 BKN055 10/01 A3005 RMK A01
Temperature: 10.0°C ( 50°F)
Dewpoint: 1.0°C ( 34°F) [RH = 53%]
Pressure (altimeter):30.05 inches Hg (1017.7 mb)
Winds:from the S (190 degrees) at 8 MPH (7 knots; 3.6 m/s) gusting to 15 MPH (13 knots; 6.7 m/s)
Visibility:10 or more sm (16+ km)
Ceiling:4300 feet AGL
Clouds: broken clouds at 4300 feet AGL, broken clouds at 5500 feet AGL
QC Flag:automated observation with no human augmentation
Text:KHLB 071335Z AUTO VRB04G15KT 10SM BKN042 BKN047 10/01 A3005 RMK A01
Temperature: 10.0°C ( 50°F)
Dewpoint: 1.0°C ( 34°F) [RH = 53%]
Pressure (altimeter):30.05 inches Hg (1017.7 mb)
Winds:variable direction winds at 5 MPH (4 knots; 2.1 m/s) gusting to 17 MPH (15 knots; 7.7 m/s)
Visibility:10 or more sm (16+ km)
Ceiling:4200 feet AGL
Clouds: broken clouds at 4200 feet AGL, broken clouds at 4700 feet AGL
QC Flag:automated observation with no human augmentation
Text:KHLB 071315Z AUTO 20004KT 10SM SCT041 SCT055 09/01 A3004 RMK A01
Temperature: 9.0°C ( 48°F)
Dewpoint: 1.0°C ( 34°F) [RH = 57%]
Pressure (altimeter):30.04 inches Hg (1017.4 mb)
Winds:from the SSW (200 degrees) at 5 MPH (4 knots; 2.1 m/s)
Visibility:10 or more sm (16+ km)
Ceiling:at least 12,000 feet AGL
Clouds: scattered clouds at 4100 feet AGL, scattered clouds at 5500 feet AGL
QC Flag:automated observation with no human augmentation
Text:KHLB 071255Z AUTO 19006KT 10SM SCT043 BKN050 08/00 A3003 RMK A01
Temperature: 8.0°C ( 46°F)
Dewpoint: 0.0°C ( 32°F) [RH = 57%]
Pressure (altimeter):30.03 inches Hg (1017.0 mb)
Winds:from the S (190 degrees) at 7 MPH (6 knots; 3.1 m/s)
Visibility:10 or more sm (16+ km)
Ceiling:5000 feet AGL
Clouds: scattered clouds at 4300 feet AGL, broken clouds at 5000 feet AGL
QC Flag:automated observation with no human augmentation
Text:KHLB 071235Z AUTO 20005KT 10SM BKN044 OVC050 07/M00 A3003 RMK A01
Temperature: 7.0°C ( 45°F)
Dewpoint: 0.0°C ( 32°F) [RH = 61%]
Pressure (altimeter):30.03 inches Hg (1017.0 mb)
Winds:from the SSW (200 degrees) at 6 MPH (5 knots; 2.6 m/s)
Visibility:10 or more sm (16+ km)
Ceiling:4400 feet AGL
Clouds: broken clouds at 4400 feet AGL, overcast cloud deck at 5000 feet AGL
QC Flag:automated observation with no human augmentation
Text:KHLB 071215Z AUTO 18007KT 10SM OVC045 07/M01 A3002 RMK A01
Temperature: 7.0°C ( 45°F)
Dewpoint: -1.0°C ( 30°F) [RH = 57%]
Pressure (altimeter):30.02 inches Hg (1016.7 mb)
Winds:from the S (180 degrees) at 8 MPH (7 knots; 3.6 m/s)
Visibility:10 or more sm (16+ km)
Ceiling:4500 feet AGL
Clouds: overcast cloud deck at 4500 feet AGL
QC Flag:automated observation with no human augmentation
Text:KHLB 071155Z AUTO 18007KT 10SM OVC042 07/M01 A3002 RMK A01
Temperature: 7.0°C ( 45°F)
Dewpoint: -1.0°C ( 30°F) [RH = 57%]
Pressure (altimeter):30.02 inches Hg (1016.7 mb)
Winds:from the S (180 degrees) at 8 MPH (7 knots; 3.6 m/s)
Visibility:10 or more sm (16+ km)
Ceiling:4200 feet AGL
Clouds: overcast cloud deck at 4200 feet AGL
QC Flag:automated observation with no human augmentation
Text:KHLB 071135Z AUTO 19006KT 10SM OVC042 07/M01 A3001 RMK A01
Temperature: 7.0°C ( 45°F)
Dewpoint: -1.0°C ( 30°F) [RH = 57%]
Pressure (altimeter):30.01 inches Hg (1016.3 mb)
Winds:from the S (190 degrees) at 7 MPH (6 knots; 3.1 m/s)
Visibility:10 or more sm (16+ km)
Ceiling:4200 feet AGL
Clouds: overcast cloud deck at 4200 feet AGL
QC Flag:automated observation with no human augmentation
Text:KHLB 071115Z AUTO 19004KT 10SM BKN043 OVC050 07/M01 A3001 RMK A01
Temperature: 7.0°C ( 45°F)
Dewpoint: -1.0°C ( 30°F) [RH = 57%]
Pressure (altimeter):30.01 inches Hg (1016.3 mb)
Winds:from the S (190 degrees) at 5 MPH (4 knots; 2.1 m/s)
Visibility:10 or more sm (16+ km)
Ceiling:4300 feet AGL
Clouds: broken clouds at 4300 feet AGL, overcast cloud deck at 5000 feet AGL
QC Flag:automated observation with no human augmentation
Text:KHLB 071055Z AUTO 18007KT 10SM BKN041 OVC050 07/M01 A3001 RMK A01
Temperature: 7.0°C ( 45°F)
Dewpoint: -1.0°C ( 30°F) [RH = 57%]
Pressure (altimeter):30.01 inches Hg (1016.3 mb)
Winds:from the S (180 degrees) at 8 MPH (7 knots; 3.6 m/s)
Visibility:10 or more sm (16+ km)
Ceiling:4100 feet AGL
Clouds: broken clouds at 4100 feet AGL, overcast cloud deck at 5000 feet AGL
QC Flag:automated observation with no human augmentation
Text:KHLB 071035Z AUTO 18006KT 10SM BKN050 OVC055 07/M02 A3001 RMK A01
Temperature: 7.0°C ( 45°F)
Dewpoint: -2.0°C ( 28°F) [RH = 53%]
Pressure (altimeter):30.01 inches Hg (1016.3 mb)
Winds:from the S (180 degrees) at 7 MPH (6 knots; 3.1 m/s)
Visibility:10 or more sm (16+ km)
Ceiling:5000 feet AGL
Clouds: broken clouds at 5000 feet AGL, overcast cloud deck at 5500 feet AGL
QC Flag:automated observation with no human augmentation
Text:KHLB 071015Z AUTO 18007KT 10SM BKN055 OVC065 06/M02 A3001 RMK A01
Temperature: 6.0°C ( 43°F)
Dewpoint: -2.0°C ( 28°F) [RH = 56%]
Pressure (altimeter):30.01 inches Hg (1016.3 mb)
Winds:from the S (180 degrees) at 8 MPH (7 knots; 3.6 m/s)
Visibility:10 or more sm (16+ km)
Ceiling:5500 feet AGL
Clouds: broken clouds at 5500 feet AGL, overcast cloud deck at 6500 feet AGL
QC Flag:automated observation with no human augmentation
Text:KHLB 070955Z AUTO 18007KT 10SM BKN060 05/M02 A3001 RMK A01
Temperature: 5.0°C ( 41°F)
Dewpoint: -2.0°C ( 28°F) [RH = 60%]
Pressure (altimeter):30.01 inches Hg (1016.3 mb)
Winds:from the S (180 degrees) at 8 MPH (7 knots; 3.6 m/s)
Visibility:10 or more sm (16+ km)
Ceiling:6000 feet AGL
Clouds: broken clouds at 6000 feet AGL
QC Flag:automated observation with no human augmentation
Text:KHLB 070935Z AUTO 17008KT 10SM SCT044 SCT055 BKN060 04/M02 A3001 RMK A01
Temperature: 4.0°C ( 39°F)
Dewpoint: -2.0°C ( 28°F) [RH = 65%]
Pressure (altimeter):30.01 inches Hg (1016.3 mb)
Winds:from the S (170 degrees) at 9 MPH (8 knots; 4.1 m/s)
Visibility:10 or more sm (16+ km)
Ceiling:6000 feet AGL
Clouds: scattered clouds at 4400 feet AGL, scattered clouds at 5500 feet AGL, broken clouds at 6000 feet AGL
QC Flag:automated observation with no human augmentation
Text:KHLB 070915Z AUTO 17008KT 10SM BKN046 OVC065 05/M02 A3002 RMK A01
Temperature: 5.0°C ( 41°F)
Dewpoint: -2.0°C ( 28°F) [RH = 60%]
Pressure (altimeter):30.02 inches Hg (1016.7 mb)
Winds:from the S (170 degrees) at 9 MPH (8 knots; 4.1 m/s)
Visibility:10 or more sm (16+ km)
Ceiling:4600 feet AGL
Clouds: broken clouds at 4600 feet AGL, overcast cloud deck at 6500 feet AGL
QC Flag:automated observation with no human augmentation
Text:KHLB 070855Z AUTO 18008KT 10SM BKN047 OVC060 04/M02 A3003 RMK A01
Temperature: 4.0°C ( 39°F)
Dewpoint: -2.0°C ( 28°F) [RH = 65%]
Pressure (altimeter):30.03 inches Hg (1017.0 mb)
Winds:from the S (180 degrees) at 9 MPH (8 knots; 4.1 m/s)
Visibility:10 or more sm (16+ km)
Ceiling:4700 feet AGL
Clouds: broken clouds at 4700 feet AGL, overcast cloud deck at 6000 feet AGL
QC Flag:automated observation with no human augmentation
Text:KHLB 070835Z AUTO 15007KT 10SM OVC055 03/M02 A3003 RMK A01
Temperature: 3.0°C ( 37°F)
Dewpoint: -2.0°C ( 28°F) [RH = 70%]
Pressure (altimeter):30.03 inches Hg (1017.0 mb)
Winds:from the SSE (150 degrees) at 8 MPH (7 knots; 3.6 m/s)
Visibility:10 or more sm (16+ km)
Ceiling:5500 feet AGL
Clouds: overcast cloud deck at 5500 feet AGL
QC Flag:automated observation with no human augmentation